Du har inga inställningar för hoppväder.nu

Hoppväder.nu

Senast uppdaterat 20:41

UTC-tid

2024-07-15 kl. 18:41


Sol och måne

Solen går upp 4:02 och går ner 23:05 (beräknade cirkatider)
Nästa fullmåne blir om 6 dagar (2024-07-21)

METAR

ESSD (Borlänge)
(21 minuter sedan)
ESSD 151820Z AUTO 11004KT 9999 FEW024/// SCT031/// OVC062/// 17/15 Q1011=



ESOE (Örebro)
(21 minuter sedan)
ESOE 151820Z 14005KT 9999 FEW019 SCT025 BKN041 16/15 Q1011=



ESOW (Västerås)
(21 minuter sedan)
ESOW 151820Z AUTO 23007KT 9999 SCT025/// BKN090/// 17/13 Q1012=



ESOK (Karlstad)
(21 minuter sedan)
ESOK 151820Z AUTO 15007KT 9999 FEW016/// SCT064/// 17/14 Q1010=






TAF

ESSD (Borlänge)
ESSD



ESOE (Örebro)
(71 minuter sedan)
ESOE 151730Z 1518/1601 15007KT 9999 SCT030 TEMPO 1518/1521 2500 SHRA BKN040CB PROB40 1523/1601 0300 FG VV002=



ESOW (Västerås)
ESOW



ESOK (Karlstad)
ESOK





Kodnycklar till TAF och METAR






LHP

(Borlänge är område se34c i Delområde 1)

Översikt

ÖVERSIKT FÖR OMRÅDE se3 UTFÄRDAD 151135

GÄLLANDE DEN 15 JULI 2024 MELLAN 12 OCH 20 UTC


Väderöversikt
Ett lågtryck i väster berör södra Sverige.

Sikt under 5 kilometer eller molnbas under 1000 fot
12-16UTC: I hela området

Måttlig eller svår isbildning
Väntas inte förekomma under perioden
Måttlig eller svår turbulens
Väntas inte förekomma under perioden


Delområde 1

PROGNOS FÖR OMRÅDE se34 UTFÄRDAD 151135
GÄLLANDE DEN 15 JULI 2024 MELLAN 12 OCH 20 UTC


Måttlig eller svår turbulens
12-20UTC: I hela området: Väntas inte förekomma under perioden

Måttlig eller svår isbildning
12-20UTC: I hela området: Väntas inte förekomma under perioden

Sikt/Väder/Moln
12-14UTC: Område se34a, se34b: Sikt 5km - >8km i regnskurar, åska. Molnbas >2000ft.
Område se34c: Sikt >8km, lokalt 5km - 8km i regnskurar, åska. Molnbas >2000ft.
Område se34d, se34e, se34f: Sikt 3km - >8km i regnskurar, åska. Molnbas >2000ft.

14-18UTC: Område se34c, se34d: Sikt 3km - >8km i regnskurar, åska, regn. Molnbas 1000ft - >2000ft.

14-20UTC: Område se34a, se34b, se34e, se34f: Sikt >8km, lokalt 3km - 5km i regnskurar, åska. Molnbas >2000ft.

18-20UTC: Område se34c, se34d: Sikt 3km - >8km i regnskurar, åska. Molnbas 1000ft - >2000ft.


Molnöversida
12-14UTC: Område se34a, se34b, se34c: Molnöversida FL100.

12-20UTC: Område se34d, se34e, se34f: Molnöversida > FL125.

14-20UTC: Område se34a, se34b, se34c: Molnöversida > FL125.


CB/TCU Moln
12-14UTC: Område se34c, se34d: isol cb

12-20UTC: Område se34a, se34b, se34e, se34f: isol cb

14-20UTC: Område se34c, se34d: isol cb, isol embd cb


Nollgradersisoterm
12-14UTC: I hela området: Noll grader FL080 - FL090.
14-20UTC: I hela området: Noll grader FL085 - FL090.

Vind vid marken
12-14UTC: Område se34a: SO/3-15 knop, byar upp till 20 knop.
Område se34b: SO-S/3-16 knop, byar upp till 23 knop.
Område se34c: SO-S/0-11 knop, byar upp till 23 knop.
Område se34d: SO-S/3-14 knop, byar upp till 34 knop.
Område se34e: S/0-12 knop, byar upp till 27 knop.
Område se34f: S/3-10 knop, byar upp till 20 knop.

14-16UTC: Område se34a: SO/1-15 knop, byar upp till 27 knop.
Område se34b: SO-S/1-19 knop, byar upp till 31 knop.
Område se34c: S/0-16 knop, byar upp till 35 knop.
Område se34d: Vrb/0-9 knop, byar upp till 34 knop.
Område se34e: S/0-12 knop, byar upp till 29 knop.
Område se34f: S/0-12 knop, byar upp till 30 knop.

16-18UTC: Område se34a: SO-S/0-17 knop, byar upp till 27 knop.
Område se34b: SO-S/0-17 knop, byar upp till 23 knop.
Område se34c: Vrb/0-7 knop, byar upp till 31 knop.
Område se34d: O/0-4 knop, byar upp till 11 knop.
Område se34e: SO-S/0-7 knop, byar upp till 20 knop.
Område se34f: S/2-10 knop, byar upp till 20 knop.

18-20UTC: Område se34a: SO-S/0-9 knop, byar upp till 12 knop.
Område se34b: SO-S/0-14 knop, byar upp till 18 knop.
Område se34c: O/0-5 knop, byar upp till 12 knop.
Område se34d: O/0-6 knop, byar upp till 17 knop.
Område se34e: SO-S/1-8 knop, byar upp till 14 knop.
Område se34f: SO-S/1-7 knop, byar upp till 15 knop.


Genomsnittlig vind och temperatur för området

2000ft:
12-14UTC: 180/13kt +14.
14-16UTC: 180/18kt +13.
16-18UTC: 190/16kt +13.
18-20UTC: 180/16kt +12.

FL050:
12-14UTC: 190/14kt +6.
14-16UTC: 180/18kt +6.
16-18UTC: 190/19kt +6.
18-20UTC: 190/18kt +6.

FL100:
12-14UTC: 190/15kt -3.
14-16UTC: 180/16kt -3.
16-18UTC: 180/18kt -3.
18-20UTC: 200/15kt -3.

Lägsta QNH
12-16UTC: I hela området: 1010 hPa
16-20UTC: I hela området: 1011 hPa

OBS! endast utbredd måttlig eller svår isbildning och turbulens prognostiseras i LLF.
Avsaknad av isbildning och turbulens i prognosen utesluter inte förekomst av lätt isbildning och turbulens.
För indikation på lätt isbildning, var vänlig kontrollera om prognosen för molntopp ligger högre än nollgradersisotermen.
Förekomst av TCU eller CB medför alltid en risk för måttlig eller svår isbildning och turbulens även om det inte framgår explicit av prognosen.